sensor_id;sensor_type;location;lat;lon;timestamp;temperature;humidity
9425;DHT22;17139;52.140;11.636;2023-06-14T00:00:31;14.90;34.30
9425;DHT22;17139;52.140;11.636;2023-06-14T00:03:00;15.10;35.30
9425;DHT22;17139;52.140;11.636;2023-06-14T00:05:27;15.00;34.00
9425;DHT22;17139;52.140;11.636;2023-06-14T00:07:55;14.90;33.80
9425;DHT22;17139;52.140;11.636;2023-06-14T00:10:23;14.80;33.90
9425;DHT22;17139;52.140;11.636;2023-06-14T00:12:50;14.70;34.00
9425;DHT22;17139;52.140;11.636;2023-06-14T00:15:17;14.60;33.80
9425;DHT22;17139;52.140;11.636;2023-06-14T00:17:44;14.80;36.10
9425;DHT22;17139;52.140;11.636;2023-06-14T00:20:13;15.00;35.70
9425;DHT22;17139;52.140;11.636;2023-06-14T00:22:40;14.80;34.20
9425;DHT22;17139;52.140;11.636;2023-06-14T00:25:07;14.70;34.10
9425;DHT22;17139;52.140;11.636;2023-06-14T00:27:35;14.60;34.20
9425;DHT22;17139;52.140;11.636;2023-06-14T00:30:03;14.50;34.30
9425;DHT22;17139;52.140;11.636;2023-06-14T00:32:30;14.40;34.20
9425;DHT22;17139;52.140;11.636;2023-06-14T00:34:57;15.10;37.00
9425;DHT22;17139;52.140;11.636;2023-06-14T00:37:24;14.90;34.80
9425;DHT22;17139;52.140;11.636;2023-06-14T00:39:51;15.10;36.80
9425;DHT22;17139;52.140;11.636;2023-06-14T00:42:25;14.90;35.00
9425;DHT22;17139;52.140;11.636;2023-06-14T00:44:53;14.60;34.90
9425;DHT22;17139;52.140;11.636;2023-06-14T00:47:21;14.40;34.70
9425;DHT22;17139;52.140;11.636;2023-06-14T00:49:49;14.30;34.70
9425;DHT22;17139;52.140;11.636;2023-06-14T00:52:17;14.20;34.70
9425;DHT22;17139;52.140;11.636;2023-06-14T00:54:44;14.30;35.80
9425;DHT22;17139;52.140;11.636;2023-06-14T00:57:12;14.60;36.70
9425;DHT22;17139;52.140;11.636;2023-06-14T00:59:43;14.50;35.20
9425;DHT22;17139;52.140;11.636;2023-06-14T01:02:12;14.30;35.00
9425;DHT22;17139;52.140;11.636;2023-06-14T01:04:40;14.10;34.90
9425;DHT22;17139;52.140;11.636;2023-06-14T01:07:17;14.00;34.80
9425;DHT22;17139;52.140;11.636;2023-06-14T01:10:02;13.90;34.90
9425;DHT22;17139;52.140;11.636;2023-06-14T01:12:39;13.90;34.90
9425;DHT22;17139;52.140;11.636;2023-06-14T01:15:07;14.40;37.20
9425;DHT22;17139;52.140;11.636;2023-06-14T01:17:37;14.20;35.20
9425;DHT22;17139;52.140;11.636;2023-06-14T01:20:10;14.00;35.10
9425;DHT22;17139;52.140;11.636;2023-06-14T01:22:50;13.90;35.00
9425;DHT22;17139;52.140;11.636;2023-06-14T01:25:18;13.80;35.10
9425;DHT22;17139;52.140;11.636;2023-06-14T01:27:47;13.90;35.90
9425;DHT22;17139;52.140;11.636;2023-06-14T01:30:15;13.80;35.20
9425;DHT22;17139;52.140;11.636;2023-06-14T01:32:44;13.70;35.00
9425;DHT22;17139;52.140;11.636;2023-06-14T01:35:11;13.60;35.00
9425;DHT22;17139;52.140;11.636;2023-06-14T01:37:39;13.60;34.90
9425;DHT22;17139;52.140;11.636;2023-06-14T01:40:10;13.50;34.90
9425;DHT22;17139;52.140;11.636;2023-06-14T01:42:38;13.50;34.90
9425;DHT22;17139;52.140;11.636;2023-06-14T01:45:07;14.20;38.00
9425;DHT22;17139;52.140;11.636;2023-06-14T01:47:35;14.30;37.40
9425;DHT22;17139;52.140;11.636;2023-06-14T01:50:03;14.10;35.70
9425;DHT22;17139;52.140;11.636;2023-06-14T01:52:30;13.80;35.40
9425;DHT22;17139;52.140;11.636;2023-06-14T01:54:57;13.60;35.30
9425;DHT22;17139;52.140;11.636;2023-06-14T01:57:31;13.60;35.40
9425;DHT22;17139;52.140;11.636;2023-06-14T01:59:58;13.40;35.30
9425;DHT22;17139;52.140;11.636;2023-06-14T02:02:25;13.80;37.80
9425;DHT22;17139;52.140;11.636;2023-06-14T02:04:52;14.30;38.20
9425;DHT22;17139;52.140;11.636;2023-06-14T02:07:23;14.00;36.00
9425;DHT22;17139;52.140;11.636;2023-06-14T02:09:50;13.70;35.80
9425;DHT22;17139;52.140;11.636;2023-06-14T02:12:17;13.50;35.80
9425;DHT22;17139;52.140;11.636;2023-06-14T02:14:45;13.30;35.60
9425;DHT22;17139;52.140;11.636;2023-06-14T02:17:12;13.30;35.80
9425;DHT22;17139;52.140;11.636;2023-06-14T02:19:39;14.10;39.00
9425;DHT22;17139;52.140;11.636;2023-06-14T02:22:07;13.80;36.50
9425;DHT22;17139;52.140;11.636;2023-06-14T02:24:34;13.50;36.30
9425;DHT22;17139;52.140;11.636;2023-06-14T02:27:01;13.30;36.10
9425;DHT22;17139;52.140;11.636;2023-06-14T02:29:29;13.20;36.00
9425;DHT22;17139;52.140;11.636;2023-06-14T02:31:57;13.10;35.90
9425;DHT22;17139;52.140;11.636;2023-06-14T02:34:24;13.00;35.80
9425;DHT22;17139;52.140;11.636;2023-06-14T02:36:51;13.50;38.60
9425;DHT22;17139;52.140;11.636;2023-06-14T02:39:18;14.00;39.10
9425;DHT22;17139;52.140;11.636;2023-06-14T02:41:48;13.70;36.80
9425;DHT22;17139;52.140;11.636;2023-06-14T02:44:17;13.30;36.30
9425;DHT22;17139;52.140;11.636;2023-06-14T02:46:45;13.20;36.50
9425;DHT22;17139;52.140;11.636;2023-06-14T02:49:13;13.00;36.30
9425;DHT22;17139;52.140;11.636;2023-06-14T02:51:40;12.90;36.30
9425;DHT22;17139;52.140;11.636;2023-06-14T02:54:07;13.70;39.60
9425;DHT22;17139;52.140;11.636;2023-06-14T02:56:34;13.40;37.10
9425;DHT22;17139;52.140;11.636;2023-06-14T02:59:01;13.20;36.80
9425;DHT22;17139;52.140;11.636;2023-06-14T03:01:28;13.00;36.80
9425;DHT22;17139;52.140;11.636;2023-06-14T03:04:00;12.80;36.90
9425;DHT22;17139;52.140;11.636;2023-06-14T03:06:28;12.70;36.90
9425;DHT22;17139;52.140;11.636;2023-06-14T03:08:56;12.60;36.90
9425;DHT22;17139;52.140;11.636;2023-06-14T03:11:25;12.50;36.60
9425;DHT22;17139;52.140;11.636;2023-06-14T03:13:53;13.00;39.10
9425;DHT22;17139;52.140;11.636;2023-06-14T03:16:20;13.50;39.80
9425;DHT22;17139;52.140;11.636;2023-06-14T03:18:50;13.20;37.50
9425;DHT22;17139;52.140;11.636;2023-06-14T03:21:17;12.90;37.20
9425;DHT22;17139;52.140;11.636;2023-06-14T03:23:46;12.70;37.20
9425;DHT22;17139;52.140;11.636;2023-06-14T03:26:14;12.60;37.20
9425;DHT22;17139;52.140;11.636;2023-06-14T03:28:43;12.60;37.20
9425;DHT22;17139;52.140;11.636;2023-06-14T03:31:10;13.20;40.40
9425;DHT22;17139;52.140;11.636;2023-06-14T03:33:38;13.50;40.30
9425;DHT22;17139;52.140;11.636;2023-06-14T03:36:05;13.20;38.20
9425;DHT22;17139;52.140;11.636;2023-06-14T03:38:33;13.00;37.80
9425;DHT22;17139;52.140;11.636;2023-06-14T03:41:01;12.90;37.70
9425;DHT22;17139;52.140;11.636;2023-06-14T03:43:28;12.80;37.60
9425;DHT22;17139;52.140;11.636;2023-06-14T03:45:56;12.70;37.50
9425;DHT22;17139;52.140;11.636;2023-06-14T03:48:23;13.20;40.40
9425;DHT22;17139;52.140;11.636;2023-06-14T03:50:50;13.10;38.10
9425;DHT22;17139;52.140;11.636;2023-06-14T03:53:17;13.10;40.00
9425;DHT22;17139;52.140;11.636;2023-06-14T03:55:46;13.00;38.00
9425;DHT22;17139;52.140;11.636;2023-06-14T03:58:15;12.90;37.60
9425;DHT22;17139;52.140;11.636;2023-06-14T04:00:42;12.80;37.50
9425;DHT22;17139;52.140;11.636;2023-06-14T04:03:11;12.80;37.80
9425;DHT22;17139;52.140;11.636;2023-06-14T04:05:38;12.90;37.90
9425;DHT22;17139;52.140;11.636;2023-06-14T04:08:07;13.10;37.50
9425;DHT22;17139;52.140;11.636;2023-06-14T04:10:35;13.20;37.30
9425;DHT22;17139;52.140;11.636;2023-06-14T04:13:02;13.10;37.20
9425;DHT22;17139;52.140;11.636;2023-06-14T04:15:31;13.20;37.40
9425;DHT22;17139;52.140;11.636;2023-06-14T04:17:59;13.10;37.50
9425;DHT22;17139;52.140;11.636;2023-06-14T04:20:26;13.10;37.30
9425;DHT22;17139;52.140;11.636;2023-06-14T04:22:53;13.10;37.40
9425;DHT22;17139;52.140;11.636;2023-06-14T04:25:22;13.10;37.50
9425;DHT22;17139;52.140;11.636;2023-06-14T04:27:51;13.90;40.90
9425;DHT22;17139;52.140;11.636;2023-06-14T04:30:19;14.50;41.50
9425;DHT22;17139;52.140;11.636;2023-06-14T04:32:48;14.40;39.90
9425;DHT22;17139;52.140;11.636;2023-06-14T04:35:19;14.70;39.80
9425;DHT22;17139;52.140;11.636;2023-06-14T04:37:46;14.90;39.10
9425;DHT22;17139;52.140;11.636;2023-06-14T04:40:13;16.00;40.40
9425;DHT22;17139;52.140;11.636;2023-06-14T04:42:40;16.40;40.30
9425;DHT22;17139;52.140;11.636;2023-06-14T04:45:10;16.40;39.00
9425;DHT22;17139;52.140;11.636;2023-06-14T04:47:38;16.50;39.00
9425;DHT22;17139;52.140;11.636;2023-06-14T04:50:08;16.70;39.00
9425;DHT22;17139;52.140;11.636;2023-06-14T04:52:35;17.00;39.20
9425;DHT22;17139;52.140;11.636;2023-06-14T04:55:03;17.30;39.00
9425;DHT22;17139;52.140;11.636;2023-06-14T04:57:31;17.60;39.00
9425;DHT22;17139;52.140;11.636;2023-06-14T04:59:58;17.80;38.90
9425;DHT22;17139;52.140;11.636;2023-06-14T05:02:26;19.10;39.10
9425;DHT22;17139;52.140;11.636;2023-06-14T05:04:56;18.90;38.50
9425;DHT22;17139;52.140;11.636;2023-06-14T05:07:24;19.20;38.70
9425;DHT22;17139;52.140;11.636;2023-06-14T05:09:51;19.10;38.40
9425;DHT22;17139;52.140;11.636;2023-06-14T05:12:18;19.00;38.60
9425;DHT22;17139;52.140;11.636;2023-06-14T05:14:46;19.20;38.90
9425;DHT22;17139;52.140;11.636;2023-06-14T05:17:13;20.90;38.00
9425;DHT22;17139;52.140;11.636;2023-06-14T05:19:40;20.30;37.60
9425;DHT22;17139;52.140;11.636;2023-06-14T05:22:07;19.90;38.10
9425;DHT22;17139;52.140;11.636;2023-06-14T05:24:35;19.80;38.40
9425;DHT22;17139;52.140;11.636;2023-06-14T05:27:03;19.90;38.90
9425;DHT22;17139;52.140;11.636;2023-06-14T05:29:31;20.00;39.00
9425;DHT22;17139;52.140;11.636;2023-06-14T05:31:58;20.60;38.80
9425;DHT22;17139;52.140;11.636;2023-06-14T05:34:25;20.90;38.10
9425;DHT22;17139;52.140;11.636;2023-06-14T05:36:52;20.60;38.10
9425;DHT22;17139;52.140;11.636;2023-06-14T05:39:19;20.50;38.40
9425;DHT22;17139;52.140;11.636;2023-06-14T05:41:48;20.40;38.50
9425;DHT22;17139;52.140;11.636;2023-06-14T05:44:15;20.50;38.70
9425;DHT22;17139;52.140;11.636;2023-06-14T05:46:42;20.70;38.80
9425;DHT22;17139;52.140;11.636;2023-06-14T05:49:09;21.00;38.90
9425;DHT22;17139;52.140;11.636;2023-06-14T05:51:37;21.30;39.00
9425;DHT22;17139;52.140;11.636;2023-06-14T05:54:04;21.60;38.90
9425;DHT22;17139;52.140;11.636;2023-06-14T05:56:31;21.90;38.50
9425;DHT22;17139;52.140;11.636;2023-06-14T05:58:59;21.90;38.20
9425;DHT22;17139;52.140;11.636;2023-06-14T06:01:27;21.90;38.10
9425;DHT22;17139;52.140;11.636;2023-06-14T06:03:54;21.70;38.90
9425;DHT22;17139;52.140;11.636;2023-06-14T06:06:20;22.90;36.80
9425;DHT22;17139;52.140;11.636;2023-06-14T06:08:48;22.70;37.20
9425;DHT22;17139;52.140;11.636;2023-06-14T06:11:14;22.70;37.80
9425;DHT22;17139;52.140;11.636;2023-06-14T06:13:41;22.80;37.80
9425;DHT22;17139;52.140;11.636;2023-06-14T06:16:10;22.60;37.60
9425;DHT22;17139;52.140;11.636;2023-06-14T06:18:37;22.40;37.40
9425;DHT22;17139;52.140;11.636;2023-06-14T06:21:05;23.90;34.90
9425;DHT22;17139;52.140;11.636;2023-06-14T06:23:32;24.40;33.50
9425;DHT22;17139;52.140;11.636;2023-06-14T06:25:59;23.20;34.60
9425;DHT22;17139;52.140;11.636;2023-06-14T06:28:26;22.40;35.70
9425;DHT22;17139;52.140;11.636;2023-06-14T06:30:53;22.00;36.30
9425;DHT22;17139;52.140;11.636;2023-06-14T06:33:21;21.90;36.50
9425;DHT22;17139;52.140;11.636;2023-06-14T06:35:49;22.40;35.70
9425;DHT22;17139;52.140;11.636;2023-06-14T06:38:16;21.90;35.70
9425;DHT22;17139;52.140;11.636;2023-06-14T06:40:44;21.60;36.00
9425;DHT22;17139;52.140;11.636;2023-06-14T06:43:11;21.40;36.20
9425;DHT22;17139;52.140;11.636;2023-06-14T06:45:39;21.30;36.20
9425;DHT22;17139;52.140;11.636;2023-06-14T06:48:06;21.20;36.00
9425;DHT22;17139;52.140;11.636;2023-06-14T06:50:34;21.00;35.80
9425;DHT22;17139;52.140;11.636;2023-06-14T06:53:01;20.80;35.90
9425;DHT22;17139;52.140;11.636;2023-06-14T06:55:31;20.50;35.80
9425;DHT22;17139;52.140;11.636;2023-06-14T06:57:58;21.20;36.00
9425;DHT22;17139;52.140;11.636;2023-06-14T07:00:26;20.70;35.60
9425;DHT22;17139;52.140;11.636;2023-06-14T07:02:53;20.30;35.90
9425;DHT22;17139;52.140;11.636;2023-06-14T07:05:20;20.00;36.10
9425;DHT22;17139;52.140;11.636;2023-06-14T07:07:49;19.80;36.30
9425;DHT22;17139;52.140;11.636;2023-06-14T07:10:16;19.60;36.40
9425;DHT22;17139;52.140;11.636;2023-06-14T07:12:44;19.30;36.40
9425;DHT22;17139;52.140;11.636;2023-06-14T07:15:11;19.00;36.30
9425;DHT22;17139;52.140;11.636;2023-06-14T07:17:38;18.80;36.60
9425;DHT22;17139;52.140;11.636;2023-06-14T07:20:07;18.50;36.50
9425;DHT22;17139;52.140;11.636;2023-06-14T07:22:39;18.40;36.60
9425;DHT22;17139;52.140;11.636;2023-06-14T07:25:10;18.30;36.80
9425;DHT22;17139;52.140;11.636;2023-06-14T07:27:39;18.20;36.80
9425;DHT22;17139;52.140;11.636;2023-06-14T07:30:08;18.60;37.50
9425;DHT22;17139;52.140;11.636;2023-06-14T07:32:35;19.00;37.20
9425;DHT22;17139;52.140;11.636;2023-06-14T07:35:03;18.70;36.60
9425;DHT22;17139;52.140;11.636;2023-06-14T07:37:30;18.40;36.60
9425;DHT22;17139;52.140;11.636;2023-06-14T07:39:57;18.30;36.70
9425;DHT22;17139;52.140;11.636;2023-06-14T07:42:25;18.30;36.70
9425;DHT22;17139;52.140;11.636;2023-06-14T07:44:52;18.40;36.90
9425;DHT22;17139;52.140;11.636;2023-06-14T07:47:19;18.50;36.70
9425;DHT22;17139;52.140;11.636;2023-06-14T07:49:46;18.50;36.70
9425;DHT22;17139;52.140;11.636;2023-06-14T07:52:13;19.20;37.10
9425;DHT22;17139;52.140;11.636;2023-06-14T07:54:40;19.00;36.20
9425;DHT22;17139;52.140;11.636;2023-06-14T07:57:07;18.90;36.50
9425;DHT22;17139;52.140;11.636;2023-06-14T07:59:36;18.80;36.60
9425;DHT22;17139;52.140;11.636;2023-06-14T08:02:03;18.80;36.70
9425;DHT22;17139;52.140;11.636;2023-06-14T08:04:31;18.80;36.60
9425;DHT22;17139;52.140;11.636;2023-06-14T08:06:58;19.10;36.80
9425;DHT22;17139;52.140;11.636;2023-06-14T08:09:25;19.40;36.60
9425;DHT22;17139;52.140;11.636;2023-06-14T08:11:54;19.10;36.00
9425;DHT22;17139;52.140;11.636;2023-06-14T08:14:21;18.90;36.10
9425;DHT22;17139;52.140;11.636;2023-06-14T08:16:50;18.90;36.30
9425;DHT22;17139;52.140;11.636;2023-06-14T08:19:17;18.90;36.40
9425;DHT22;17139;52.140;11.636;2023-06-14T08:21:45;18.90;36.40
9425;DHT22;17139;52.140;11.636;2023-06-14T08:24:13;19.00;36.30
9425;DHT22;17139;52.140;11.636;2023-06-14T08:26:40;19.00;36.30
9425;DHT22;17139;52.140;11.636;2023-06-14T08:29:07;19.30;36.40
9425;DHT22;17139;52.140;11.636;2023-06-14T08:31:34;19.20;36.90
9425;DHT22;17139;52.140;11.636;2023-06-14T08:34:02;19.30;36.30
9425;DHT22;17139;52.140;11.636;2023-06-14T08:36:30;19.50;36.30
9425;DHT22;17139;52.140;11.636;2023-06-14T08:38:57;19.60;36.10
9425;DHT22;17139;52.140;11.636;2023-06-14T08:41:23;20.50;35.70
9425;DHT22;17139;52.140;11.636;2023-06-14T08:43:51;20.20;35.60
9425;DHT22;17139;52.140;11.636;2023-06-14T08:46:18;20.00;36.00
9425;DHT22;17139;52.140;11.636;2023-06-14T08:48:47;20.00;36.10
9425;DHT22;17139;52.140;11.636;2023-06-14T08:51:18;19.90;36.10
9425;DHT22;17139;52.140;11.636;2023-06-14T08:53:51;20.00;36.20
9425;DHT22;17139;52.140;11.636;2023-06-14T08:56:19;20.30;36.30
9425;DHT22;17139;52.140;11.636;2023-06-14T08:58:47;20.30;36.00
9425;DHT22;17139;52.140;11.636;2023-06-14T09:01:15;20.70;35.80
9425;DHT22;17139;52.140;11.636;2023-06-14T09:03:43;20.40;35.60
9425;DHT22;17139;52.140;11.636;2023-06-14T09:06:11;20.30;36.00
9425;DHT22;17139;52.140;11.636;2023-06-14T09:08:43;20.30;36.10
9425;DHT22;17139;52.140;11.636;2023-06-14T09:11:11;20.30;36.10
9425;DHT22;17139;52.140;11.636;2023-06-14T09:13:38;20.40;36.00
9425;DHT22;17139;52.140;11.636;2023-06-14T09:16:06;20.80;36.60
9425;DHT22;17139;52.140;11.636;2023-06-14T09:18:35;21.20;35.60
9425;DHT22;17139;52.140;11.636;2023-06-14T09:21:02;20.90;35.50
9425;DHT22;17139;52.140;11.636;2023-06-14T09:23:33;20.70;35.80
9425;DHT22;17139;52.140;11.636;2023-06-14T09:26:08;20.80;36.60
9425;DHT22;17139;52.140;11.636;2023-06-14T09:28:36;20.90;35.90
9425;DHT22;17139;52.140;11.636;2023-06-14T09:31:03;20.80;35.80
9425;DHT22;17139;52.140;11.636;2023-06-14T09:33:31;21.50;35.50
9425;DHT22;17139;52.140;11.636;2023-06-14T09:35:59;22.00;35.20
9425;DHT22;17139;52.140;11.636;2023-06-14T09:38:26;21.70;35.40
9425;DHT22;17139;52.140;11.636;2023-06-14T09:40:58;21.40;35.50
9425;DHT22;17139;52.140;11.636;2023-06-14T09:43:27;21.40;35.80
9425;DHT22;17139;52.140;11.636;2023-06-14T09:45:54;21.50;35.80
9425;DHT22;17139;52.140;11.636;2023-06-14T09:48:22;21.70;36.00
9425;DHT22;17139;52.140;11.636;2023-06-14T09:50:50;21.80;35.60
9425;DHT22;17139;52.140;11.636;2023-06-14T09:53:21;21.60;35.60
9425;DHT22;17139;52.140;11.636;2023-06-14T09:55:50;21.60;36.00
9425;DHT22;17139;52.140;11.636;2023-06-14T09:58:20;21.50;35.90
9425;DHT22;17139;52.140;11.636;2023-06-14T10:00:51;21.50;35.90
9425;DHT22;17139;52.140;11.636;2023-06-14T10:03:24;21.40;36.00
9425;DHT22;17139;52.140;11.636;2023-06-14T10:05:52;22.00;36.10
9425;DHT22;17139;52.140;11.636;2023-06-14T10:08:24;21.90;35.70
9425;DHT22;17139;52.140;11.636;2023-06-14T10:10:53;21.70;35.90
9425;DHT22;17139;52.140;11.636;2023-06-14T10:13:20;21.50;36.00
9425;DHT22;17139;52.140;11.636;2023-06-14T10:15:57;21.40;36.20
9425;DHT22;17139;52.140;11.636;2023-06-14T10:18:31;21.40;36.40
9425;DHT22;17139;52.140;11.636;2023-06-14T10:21:04;21.50;36.40
9425;DHT22;17139;52.140;11.636;2023-06-14T10:23:38;22.00;36.10
9425;DHT22;17139;52.140;11.636;2023-06-14T10:26:07;22.30;35.70
9425;DHT22;17139;52.140;11.636;2023-06-14T10:28:37;22.00;35.80
9425;DHT22;17139;52.140;11.636;2023-06-14T10:31:10;21.70;36.10
9425;DHT22;17139;52.140;11.636;2023-06-14T10:33:48;21.70;36.20
9425;DHT22;17139;52.140;11.636;2023-06-14T10:36:26;21.60;36.10
9425;DHT22;17139;52.140;11.636;2023-06-14T10:39:05;22.20;35.90
9425;DHT22;17139;52.140;11.636;2023-06-14T10:41:36;22.00;35.90
9425;DHT22;17139;52.140;11.636;2023-06-14T10:44:38;21.90;36.00
9425;DHT22;17139;52.140;11.636;2023-06-14T10:47:09;22.00;36.00
9425;DHT22;17139;52.140;11.636;2023-06-14T10:49:42;21.80;36.00
9425;DHT22;17139;52.140;11.636;2023-06-14T10:52:11;21.70;36.20
9425;DHT22;17139;52.140;11.636;2023-06-14T10:54:59;21.50;36.20
9425;DHT22;17139;52.140;11.636;2023-06-14T10:57:26;21.40;36.40
9425;DHT22;17139;52.140;11.636;2023-06-14T10:59:53;21.90;36.60
9425;DHT22;17139;52.140;11.636;2023-06-14T11:02:47;22.50;35.70
9425;DHT22;17139;52.140;11.636;2023-06-14T11:05:23;22.30;35.60
9425;DHT22;17139;52.140;11.636;2023-06-14T11:08:04;22.20;35.80
9425;DHT22;17139;52.140;11.636;2023-06-14T11:10:36;22.20;35.90
9425;DHT22;17139;52.140;11.636;2023-06-14T11:13:04;22.00;35.80
9425;DHT22;17139;52.140;11.636;2023-06-14T11:15:32;22.00;35.90
9425;DHT22;17139;52.140;11.636;2023-06-14T11:18:03;22.70;35.30
9425;DHT22;17139;52.140;11.636;2023-06-14T11:20:33;23.10;34.70
9425;DHT22;17139;52.140;11.636;2023-06-14T11:23:02;22.60;35.20
9425;DHT22;17139;52.140;11.636;2023-06-14T11:25:30;22.30;35.40
9425;DHT22;17139;52.140;11.636;2023-06-14T11:27:58;22.30;35.60
9425;DHT22;17139;52.140;11.636;2023-06-14T11:30:26;22.30;35.40
9425;DHT22;17139;52.140;11.636;2023-06-14T11:32:54;22.50;34.90
9425;DHT22;17139;52.140;11.636;2023-06-14T11:35:23;22.30;35.10
9425;DHT22;17139;52.140;11.636;2023-06-14T11:37:53;22.30;35.60
9425;DHT22;17139;52.140;11.636;2023-06-14T11:40:23;22.20;35.40
9425;DHT22;17139;52.140;11.636;2023-06-14T11:42:58;22.20;35.50
9425;DHT22;17139;52.140;11.636;2023-06-14T11:45:26;22.30;35.60
9425;DHT22;17139;52.140;11.636;2023-06-14T11:47:55;22.40;35.50
9425;DHT22;17139;52.140;11.636;2023-06-14T11:50:24;22.50;35.40
9425;DHT22;17139;52.140;11.636;2023-06-14T11:52:55;22.50;35.40
9425;DHT22;17139;52.140;11.636;2023-06-14T11:55:22;22.50;35.40
9425;DHT22;17139;52.140;11.636;2023-06-14T11:57:50;22.50;35.40
9425;DHT22;17139;52.140;11.636;2023-06-14T12:00:18;22.60;35.40
9425;DHT22;17139;52.140;11.636;2023-06-14T12:02:52;22.60;35.10
9425;DHT22;17139;52.140;11.636;2023-06-14T12:05:21;22.70;35.20
9425;DHT22;17139;52.140;11.636;2023-06-14T12:07:50;22.80;35.20
9425;DHT22;17139;52.140;11.636;2023-06-14T12:10:19;22.90;35.00
9425;DHT22;17139;52.140;11.636;2023-06-14T12:12:46;23.00;34.70
9425;DHT22;17139;52.140;11.636;2023-06-14T12:15:13;23.10;34.50
9425;DHT22;17139;52.140;11.636;2023-06-14T12:17:42;23.20;34.60
9425;DHT22;17139;52.140;11.636;2023-06-14T12:20:10;23.20;34.60
9425;DHT22;17139;52.140;11.636;2023-06-14T12:22:39;23.10;34.50
9425;DHT22;17139;52.140;11.636;2023-06-14T12:25:28;23.10;34.50
9425;DHT22;17139;52.140;11.636;2023-06-14T12:27:58;23.20;34.60
9425;DHT22;17139;52.140;11.636;2023-06-14T12:30:25;23.20;34.70
9425;DHT22;17139;52.140;11.636;2023-06-14T12:32:52;24.10;33.40
9425;DHT22;17139;52.140;11.636;2023-06-14T12:35:19;24.00;33.90
9425;DHT22;17139;52.140;11.636;2023-06-14T12:37:46;24.00;34.20
9425;DHT22;17139;52.140;11.636;2023-06-14T12:40:14;24.00;34.40
9425;DHT22;17139;52.140;11.636;2023-06-14T12:42:44;24.00;34.40
9425;DHT22;17139;52.140;11.636;2023-06-14T12:45:12;23.90;34.50
9425;DHT22;17139;52.140;11.636;2023-06-14T12:47:40;23.80;34.80
9425;DHT22;17139;52.140;11.636;2023-06-14T12:50:08;23.80;34.80
9425;DHT22;17139;52.140;11.636;2023-06-14T12:52:35;24.60;33.00
9425;DHT22;17139;52.140;11.636;2023-06-14T12:55:03;24.30;33.60
9425;DHT22;17139;52.140;11.636;2023-06-14T12:57:30;24.10;33.90
9425;DHT22;17139;52.140;11.636;2023-06-14T12:59:59;23.90;34.10
9425;DHT22;17139;52.140;11.636;2023-06-14T13:02:26;23.90;34.20
9425;DHT22;17139;52.140;11.636;2023-06-14T13:04:54;23.90;34.40
9425;DHT22;17139;52.140;11.636;2023-06-14T13:07:22;24.70;32.60
9425;DHT22;17139;52.140;11.636;2023-06-14T13:09:49;25.20;32.00
9425;DHT22;17139;52.140;11.636;2023-06-14T13:12:16;24.80;32.80
9425;DHT22;17139;52.140;11.636;2023-06-14T13:14:43;24.40;33.20
9425;DHT22;17139;52.140;11.636;2023-06-14T13:17:12;24.20;33.50
9425;DHT22;17139;52.140;11.636;2023-06-14T13:19:39;24.10;33.90
9425;DHT22;17139;52.140;11.636;2023-06-14T13:22:07;24.00;33.60
9425;DHT22;17139;52.140;11.636;2023-06-14T13:24:35;23.80;34.00
9425;DHT22;17139;52.140;11.636;2023-06-14T13:27:02;24.40;32.60
9425;DHT22;17139;52.140;11.636;2023-06-14T13:29:29;24.10;33.30
9425;DHT22;17139;52.140;11.636;2023-06-14T13:31:56;23.90;33.80
9425;DHT22;17139;52.140;11.636;2023-06-14T13:34:25;23.80;34.00
9425;DHT22;17139;52.140;11.636;2023-06-14T13:36:52;23.90;34.00
9425;DHT22;17139;52.140;11.636;2023-06-14T13:39:19;23.90;33.80
9425;DHT22;17139;52.140;11.636;2023-06-14T13:41:46;24.70;32.00
9425;DHT22;17139;52.140;11.636;2023-06-14T13:44:13;24.40;32.80
9425;DHT22;17139;52.140;11.636;2023-06-14T13:46:40;24.70;32.30
9425;DHT22;17139;52.140;11.636;2023-06-14T13:49:08;24.70;32.90
9425;DHT22;17139;52.140;11.636;2023-06-14T13:51:37;24.50;33.10
9425;DHT22;17139;52.140;11.636;2023-06-14T13:54:04;24.50;33.30
9425;DHT22;17139;52.140;11.636;2023-06-14T13:56:31;24.40;33.20
9425;DHT22;17139;52.140;11.636;2023-06-14T13:58:58;24.40;33.40
9425;DHT22;17139;52.140;11.636;2023-06-14T14:01:26;24.60;34.00
9425;DHT22;17139;52.140;11.636;2023-06-14T14:03:54;25.30;31.20
9425;DHT22;17139;52.140;11.636;2023-06-14T14:06:21;25.10;32.10
9425;DHT22;17139;52.140;11.636;2023-06-14T14:08:50;25.70;30.30
9425;DHT22;17139;52.140;11.636;2023-06-14T14:11:19;25.30;31.00
9425;DHT22;17139;52.140;11.636;2023-06-14T14:13:46;24.90;31.60
9425;DHT22;17139;52.140;11.636;2023-06-14T14:16:13;24.60;32.10
9425;DHT22;17139;52.140;11.636;2023-06-14T14:18:40;24.40;32.40
9425;DHT22;17139;52.140;11.636;2023-06-14T14:21:07;24.40;32.50
9425;DHT22;17139;52.140;11.636;2023-06-14T14:23:35;24.30;32.10
9425;DHT22;17139;52.140;11.636;2023-06-14T14:26:03;24.50;31.90
9425;DHT22;17139;52.140;11.636;2023-06-14T14:28:30;24.50;32.10
9425;DHT22;17139;52.140;11.636;2023-06-14T14:30:58;24.30;32.40
9425;DHT22;17139;52.140;11.636;2023-06-14T14:33:25;24.20;32.70
9425;DHT22;17139;52.140;11.636;2023-06-14T14:35:52;24.20;32.80
9425;DHT22;17139;52.140;11.636;2023-06-14T14:38:19;24.20;32.90
9425;DHT22;17139;52.140;11.636;2023-06-14T14:40:47;24.30;32.70
9425;DHT22;17139;52.140;11.636;2023-06-14T14:43:16;24.40;32.90
9425;DHT22;17139;52.140;11.636;2023-06-14T14:45:43;24.80;31.60
9425;DHT22;17139;52.140;11.636;2023-06-14T14:48:10;24.70;32.30
9425;DHT22;17139;52.140;11.636;2023-06-14T14:50:37;24.50;32.20
9425;DHT22;17139;52.140;11.636;2023-06-14T14:53:04;24.40;32.50
9425;DHT22;17139;52.140;11.636;2023-06-14T14:55:31;24.40;32.70
9425;DHT22;17139;52.140;11.636;2023-06-14T14:58:00;24.40;32.70
9425;DHT22;17139;52.140;11.636;2023-06-14T15:00:29;24.40;32.70
9425;DHT22;17139;52.140;11.636;2023-06-14T15:02:56;25.20;30.20
9425;DHT22;17139;52.140;11.636;2023-06-14T15:05:23;25.00;31.30
9425;DHT22;17139;52.140;11.636;2023-06-14T15:07:50;24.80;31.80
9425;DHT22;17139;52.140;11.636;2023-06-14T15:10:17;24.70;31.80
9425;DHT22;17139;52.140;11.636;2023-06-14T15:12:44;24.60;31.90
9425;DHT22;17139;52.140;11.636;2023-06-14T15:15:11;24.40;31.90
9425;DHT22;17139;52.140;11.636;2023-06-14T15:17:40;24.30;31.90
9425;DHT22;17139;52.140;11.636;2023-06-14T15:20:08;24.90;29.80
9425;DHT22;17139;52.140;11.636;2023-06-14T15:22:35;24.40;30.70
9425;DHT22;17139;52.140;11.636;2023-06-14T15:25:02;24.70;29.60
9425;DHT22;17139;52.140;11.636;2023-06-14T15:27:29;24.50;30.60
9425;DHT22;17139;52.140;11.636;2023-06-14T15:29:56;24.40;31.30
9425;DHT22;17139;52.140;11.636;2023-06-14T15:32:23;24.40;31.60
9425;DHT22;17139;52.140;11.636;2023-06-14T15:34:56;24.40;31.60
9425;DHT22;17139;52.140;11.636;2023-06-14T15:37:23;24.50;31.70